sensor_id;sensor_type;location;lat;lon;timestamp;P1;durP1;ratioP1;P2;durP2;ratioP2
27804;SDS011;15183;51.350;11.102;2022-12-29T10:49:17;10.18;;;5.55;;
27804;SDS011;15183;51.350;11.102;2022-12-29T10:51:46;6.13;;;4.10;;
27804;SDS011;15183;51.350;11.102;2022-12-29T10:54:25;4.53;;;3.72;;
27804;SDS011;15183;51.350;11.102;2022-12-29T10:56:56;8.18;;;5.50;;
27804;SDS011;15183;51.350;11.102;2022-12-29T10:59:37;10.00;;;5.32;;
27804;SDS011;15183;51.350;11.102;2022-12-29T11:08:10;12.60;;;7.88;;
27804;SDS011;15183;51.350;11.102;2022-12-29T11:10:43;6.85;;;4.93;;
27804;SDS011;15183;51.350;11.102;2022-12-29T11:13:16;9.00;;;5.88;;
27804;SDS011;15183;51.350;11.102;2022-12-29T11:15:50;11.77;;;8.35;;
27804;SDS011;15183;51.350;11.102;2022-12-29T11:18:18;6.88;;;5.18;;
27804;SDS011;15183;51.350;11.102;2022-12-29T11:20:57;7.35;;;4.85;;
27804;SDS011;15183;51.350;11.102;2022-12-29T11:23:29;4.68;;;3.75;;
27804;SDS011;15183;51.350;11.102;2022-12-29T11:26:07;7.82;;;5.03;;
27804;SDS011;15183;51.350;11.102;2022-12-29T11:28:37;7.82;;;5.28;;
27804;SDS011;15183;51.350;11.102;2022-12-29T11:31:06;9.10;;;5.38;;
27804;SDS011;15183;51.350;11.102;2022-12-29T11:33:35;7.65;;;5.28;;
27804;SDS011;15183;51.350;11.102;2022-12-29T11:36:10;5.55;;;3.75;;
27804;SDS011;15183;51.350;11.102;2022-12-29T11:38:46;3.67;;;2.45;;
27804;SDS011;15183;51.350;11.102;2022-12-29T11:41:26;12.68;;;7.18;;
27804;SDS011;15183;51.350;11.102;2022-12-29T11:43:58;8.95;;;6.30;;
27804;SDS011;15183;51.350;11.102;2022-12-29T11:46:32;5.05;;;3.80;;
27804;SDS011;15183;51.350;11.102;2022-12-29T11:49:03;3.85;;;2.67;;
27804;SDS011;15183;51.350;11.102;2022-12-29T11:51:34;5.13;;;3.15;;
27804;SDS011;15183;51.350;11.102;2022-12-29T11:54:13;6.10;;;4.00;;
27804;SDS011;15183;51.350;11.102;2022-12-29T11:56:56;5.40;;;4.00;;
27804;SDS011;15183;51.350;11.102;2022-12-29T12:01:56;15.05;;;9.52;;
27804;SDS011;15183;51.350;11.102;2022-12-29T12:04:25;8.18;;;6.45;;
27804;SDS011;15183;51.350;11.102;2022-12-29T12:10:00;8.10;;;5.85;;
27804;SDS011;15183;51.350;11.102;2022-12-29T12:15:08;8.00;;;4.95;;
27804;SDS011;15183;51.350;11.102;2022-12-29T12:17:55;6.88;;;4.20;;
27804;SDS011;15183;51.350;11.102;2022-12-29T12:23:26;9.00;;;5.70;;
27804;SDS011;15183;51.350;11.102;2022-12-29T12:26:35;6.30;;;4.43;;
27804;SDS011;15183;51.350;11.102;2022-12-29T12:29:20;2.85;;;2.25;;
27804;SDS011;15183;51.350;11.102;2022-12-29T12:31:57;5.70;;;4.28;;
27804;SDS011;15183;51.350;11.102;2022-12-29T12:34:45;9.80;;;5.70;;
27804;SDS011;15183;51.350;11.102;2022-12-29T12:40:32;9.45;;;6.05;;
27804;SDS011;15183;51.350;11.102;2022-12-29T12:43:41;6.43;;;3.78;;
27804;SDS011;15183;51.350;11.102;2022-12-29T12:55:44;4.25;;;3.03;;
27804;SDS011;15183;51.350;11.102;2022-12-29T13:10:16;2.47;;;2.10;;
27804;SDS011;15183;51.350;11.102;2022-12-29T13:13:31;6.10;;;4.60;;
27804;SDS011;15183;51.350;11.102;2022-12-29T13:16:23;4.80;;;3.22;;
27804;SDS011;15183;51.350;11.102;2022-12-29T13:25:21;2.92;;;2.17;;
27804;SDS011;15183;51.350;11.102;2022-12-29T13:31:00;4.32;;;2.55;;
27804;SDS011;15183;51.350;11.102;2022-12-29T13:36:40;2.17;;;1.92;;
27804;SDS011;15183;51.350;11.102;2022-12-29T13:39:18;4.05;;;2.63;;
27804;SDS011;15183;51.350;11.102;2022-12-29T13:41:55;2.28;;;1.98;;
27804;SDS011;15183;51.350;11.102;2022-12-29T13:47:15;5.65;;;2.95;;
27804;SDS011;15183;51.350;11.102;2022-12-29T13:49:44;5.47;;;2.50;;
27804;SDS011;15183;51.350;11.102;2022-12-29T13:52:16;3.60;;;2.33;;
27804;SDS011;15183;51.350;11.102;2022-12-29T13:55:23;3.30;;;2.50;;
27804;SDS011;15183;51.350;11.102;2022-12-29T13:58:13;2.10;;;1.52;;
27804;SDS011;15183;51.350;11.102;2022-12-29T14:06:22;2.78;;;1.50;;
27804;SDS011;15183;51.350;11.102;2022-12-29T14:09:04;2.97;;;1.35;;
27804;SDS011;15183;51.350;11.102;2022-12-29T14:11:33;2.03;;;1.20;;
27804;SDS011;15183;51.350;11.102;2022-12-29T14:14:38;1.85;;;1.42;;
27804;SDS011;15183;51.350;11.102;2022-12-29T14:17:09;2.30;;;1.25;;
27804;SDS011;15183;51.350;11.102;2022-12-29T14:19:41;3.72;;;1.85;;
27804;SDS011;15183;51.350;11.102;2022-12-29T14:22:09;3.00;;;2.13;;
27804;SDS011;15183;51.350;11.102;2022-12-29T14:34:53;2.80;;;2.10;;
27804;SDS011;15183;51.350;11.102;2022-12-29T14:37:46;2.83;;;1.40;;
27804;SDS011;15183;51.350;11.102;2022-12-29T14:40:25;3.60;;;2.60;;
27804;SDS011;15183;51.350;11.102;2022-12-29T14:42:53;4.30;;;2.53;;
27804;SDS011;15183;51.350;11.102;2022-12-29T14:47:55;5.90;;;2.88;;
27804;SDS011;15183;51.350;11.102;2022-12-29T14:50:41;5.70;;;3.20;;
27804;SDS011;15183;51.350;11.102;2022-12-29T14:56:17;3.13;;;2.22;;
27804;SDS011;15183;51.350;11.102;2022-12-29T14:59:02;2.15;;;1.52;;
27804;SDS011;15183;51.350;11.102;2022-12-29T15:04:17;2.72;;;2.03;;
27804;SDS011;15183;51.350;11.102;2022-12-29T15:06:47;1.85;;;1.17;;
27804;SDS011;15183;51.350;11.102;2022-12-29T15:14:59;2.88;;;1.95;;
27804;SDS011;15183;51.350;11.102;2022-12-29T15:20:01;3.88;;;2.28;;
27804;SDS011;15183;51.350;11.102;2022-12-29T15:22:56;2.40;;;1.55;;
27804;SDS011;15183;51.350;11.102;2022-12-29T15:25:27;1.50;;;1.13;;
27804;SDS011;15183;51.350;11.102;2022-12-29T15:28:01;3.55;;;1.95;;
27804;SDS011;15183;51.350;11.102;2022-12-29T15:30:32;5.60;;;2.65;;
27804;SDS011;15183;51.350;11.102;2022-12-29T15:32:58;4.63;;;3.25;;
27804;SDS011;15183;51.350;11.102;2022-12-29T15:35:27;3.85;;;3.38;;
27804;SDS011;15183;51.350;11.102;2022-12-29T15:38:12;5.10;;;3.20;;
27804;SDS011;15183;51.350;11.102;2022-12-29T15:40:45;7.05;;;4.40;;
27804;SDS011;15183;51.350;11.102;2022-12-29T15:46:04;4.03;;;2.90;;
27804;SDS011;15183;51.350;11.102;2022-12-29T15:48:30;4.32;;;2.53;;
27804;SDS011;15183;51.350;11.102;2022-12-29T15:50:58;2.17;;;1.90;;
27804;SDS011;15183;51.350;11.102;2022-12-29T15:53:26;2.35;;;1.52;;
27804;SDS011;15183;51.350;11.102;2022-12-29T15:55:56;2.90;;;1.90;;
27804;SDS011;15183;51.350;11.102;2022-12-29T15:58:39;3.45;;;2.33;;
27804;SDS011;15183;51.350;11.102;2022-12-29T16:01:18;2.85;;;1.58;;
27804;SDS011;15183;51.350;11.102;2022-12-29T16:03:53;2.33;;;1.60;;
27804;SDS011;15183;51.350;11.102;2022-12-29T16:06:28;3.88;;;1.70;;
27804;SDS011;15183;51.350;11.102;2022-12-29T16:09:02;5.05;;;2.13;;
27804;SDS011;15183;51.350;11.102;2022-12-29T16:11:45;7.35;;;1.80;;
27804;SDS011;15183;51.350;11.102;2022-12-29T16:14:21;1.92;;;1.45;;
27804;SDS011;15183;51.350;11.102;2022-12-29T16:17:12;6.13;;;1.20;;
27804;SDS011;15183;51.350;11.102;2022-12-29T16:19:50;4.53;;;1.92;;
27804;SDS011;15183;51.350;11.102;2022-12-29T16:25:16;3.83;;;2.05;;
27804;SDS011;15183;51.350;11.102;2022-12-29T16:27:57;3.45;;;1.67;;
27804;SDS011;15183;51.350;11.102;2022-12-29T16:30:29;5.93;;;2.25;;
27804;SDS011;15183;51.350;11.102;2022-12-29T16:32:59;2.58;;;1.38;;
27804;SDS011;15183;51.350;11.102;2022-12-29T16:40:50;3.55;;;2.40;;
27804;SDS011;15183;51.350;11.102;2022-12-29T16:43:31;2.70;;;2.08;;
27804;SDS011;15183;51.350;11.102;2022-12-29T16:46:16;4.25;;;1.42;;
27804;SDS011;15183;51.350;11.102;2022-12-29T16:48:53;3.15;;;1.60;;
27804;SDS011;15183;51.350;11.102;2022-12-29T16:51:31;2.63;;;1.33;;
27804;SDS011;15183;51.350;11.102;2022-12-29T16:54:02;3.75;;;1.38;;
27804;SDS011;15183;51.350;11.102;2022-12-29T16:56:30;5.82;;;1.88;;
27804;SDS011;15183;51.350;11.102;2022-12-29T16:59:05;2.00;;;1.35;;
27804;SDS011;15183;51.350;11.102;2022-12-29T17:01:42;2.88;;;1.48;;
27804;SDS011;15183;51.350;11.102;2022-12-29T17:04:09;3.58;;;2.20;;
27804;SDS011;15183;51.350;11.102;2022-12-29T17:06:39;8.13;;;5.47;;
27804;SDS011;15183;51.350;11.102;2022-12-29T17:11:46;4.80;;;2.55;;
27804;SDS011;15183;51.350;11.102;2022-12-29T17:14:26;3.80;;;2.30;;
27804;SDS011;15183;51.350;11.102;2022-12-29T17:17:11;3.60;;;1.67;;
27804;SDS011;15183;51.350;11.102;2022-12-29T17:19:39;3.22;;;2.03;;
27804;SDS011;15183;51.350;11.102;2022-12-29T17:22:15;4.05;;;2.17;;
27804;SDS011;15183;51.350;11.102;2022-12-29T17:24:51;4.18;;;2.17;;
27804;SDS011;15183;51.350;11.102;2022-12-29T17:27:21;6.05;;;2.17;;
27804;SDS011;15183;51.350;11.102;2022-12-29T17:29:57;6.03;;;2.28;;
27804;SDS011;15183;51.350;11.102;2022-12-29T17:32:28;3.92;;;1.95;;
27804;SDS011;15183;51.350;11.102;2022-12-29T17:34:55;6.22;;;2.42;;
27804;SDS011;15183;51.350;11.102;2022-12-29T17:40:03;6.32;;;2.40;;
27804;SDS011;15183;51.350;11.102;2022-12-29T17:42:32;5.68;;;2.80;;
27804;SDS011;15183;51.350;11.102;2022-12-29T17:45:11;5.55;;;2.95;;
27804;SDS011;15183;51.350;11.102;2022-12-29T17:47:45;4.15;;;2.45;;
27804;SDS011;15183;51.350;11.102;2022-12-29T17:50:13;3.38;;;2.38;;
27804;SDS011;15183;51.350;11.102;2022-12-29T17:52:49;4.22;;;2.45;;
27804;SDS011;15183;51.350;11.102;2022-12-29T17:55:25;2.25;;;1.80;;
27804;SDS011;15183;51.350;11.102;2022-12-29T17:57:51;5.75;;;2.17;;
27804;SDS011;15183;51.350;11.102;2022-12-29T18:00:19;3.85;;;1.52;;
27804;SDS011;15183;51.350;11.102;2022-12-29T18:02:49;3.78;;;1.70;;
27804;SDS011;15183;51.350;11.102;2022-12-29T18:07:54;3.17;;;1.80;;
27804;SDS011;15183;51.350;11.102;2022-12-29T18:10:25;8.63;;;2.47;;
27804;SDS011;15183;51.350;11.102;2022-12-29T18:12:55;5.32;;;2.88;;
27804;SDS011;15183;51.350;11.102;2022-12-29T18:15:25;4.72;;;3.33;;
27804;SDS011;15183;51.350;11.102;2022-12-29T18:18:20;5.40;;;2.92;;
27804;SDS011;15183;51.350;11.102;2022-12-29T18:20:48;3.85;;;2.05;;
27804;SDS011;15183;51.350;11.102;2022-12-29T18:23:24;5.22;;;2.20;;
27804;SDS011;15183;51.350;11.102;2022-12-29T18:26:03;3.42;;;1.75;;
27804;SDS011;15183;51.350;11.102;2022-12-29T18:28:37;5.07;;;1.80;;
27804;SDS011;15183;51.350;11.102;2022-12-29T18:31:08;5.30;;;1.40;;
27804;SDS011;15183;51.350;11.102;2022-12-29T18:33:50;3.15;;;1.55;;
27804;SDS011;15183;51.350;11.102;2022-12-29T18:36:17;6.55;;;1.70;;
27804;SDS011;15183;51.350;11.102;2022-12-29T18:38:44;5.03;;;1.90;;
27804;SDS011;15183;51.350;11.102;2022-12-29T18:41:15;3.97;;;1.30;;
27804;SDS011;15183;51.350;11.102;2022-12-29T18:43:45;3.78;;;1.30;;
27804;SDS011;15183;51.350;11.102;2022-12-29T18:46:12;3.92;;;1.48;;
27804;SDS011;15183;51.350;11.102;2022-12-29T18:48:39;5.03;;;2.00;;
27804;SDS011;15183;51.350;11.102;2022-12-29T18:51:06;4.32;;;1.45;;
27804;SDS011;15183;51.350;11.102;2022-12-29T18:53:44;3.35;;;1.63;;
27804;SDS011;15183;51.350;11.102;2022-12-29T18:56:11;3.08;;;1.80;;
27804;SDS011;15183;51.350;11.102;2022-12-29T18:58:38;4.53;;;1.30;;
27804;SDS011;15183;51.350;11.102;2022-12-29T19:01:05;5.30;;;1.48;;
27804;SDS011;15183;51.350;11.102;2022-12-29T19:03:32;3.53;;;1.13;;
27804;SDS011;15183;51.350;11.102;2022-12-29T19:05:58;3.05;;;1.75;;
27804;SDS011;15183;51.350;11.102;2022-12-29T19:08:25;5.40;;;2.90;;
27804;SDS011;15183;51.350;11.102;2022-12-29T19:10:51;3.58;;;1.60;;
27804;SDS011;15183;51.350;11.102;2022-12-29T19:13:19;4.45;;;1.52;;
27804;SDS011;15183;51.350;11.102;2022-12-29T19:15:54;4.13;;;1.80;;
27804;SDS011;15183;51.350;11.102;2022-12-29T19:18:22;4.80;;;2.17;;
27804;SDS011;15183;51.350;11.102;2022-12-29T19:20:52;4.65;;;2.30;;
27804;SDS011;15183;51.350;11.102;2022-12-29T19:23:22;3.90;;;1.88;;
27804;SDS011;15183;51.350;11.102;2022-12-29T19:25:50;4.45;;;1.90;;
27804;SDS011;15183;51.350;11.102;2022-12-29T19:28:20;4.80;;;2.10;;
27804;SDS011;15183;51.350;11.102;2022-12-29T19:30:52;5.68;;;2.50;;
27804;SDS011;15183;51.350;11.102;2022-12-29T19:33:24;3.67;;;1.88;;
27804;SDS011;15183;51.350;11.102;2022-12-29T19:35:51;3.45;;;1.60;;
27804;SDS011;15183;51.350;11.102;2022-12-29T19:38:22;3.10;;;1.48;;
27804;SDS011;15183;51.350;11.102;2022-12-29T19:40:49;2.72;;;1.38;;
27804;SDS011;15183;51.350;11.102;2022-12-29T19:43:16;2.90;;;1.58;;
27804;SDS011;15183;51.350;11.102;2022-12-29T19:45:43;7.07;;;2.42;;
27804;SDS011;15183;51.350;11.102;2022-12-29T19:48:14;2.95;;;1.30;;
27804;SDS011;15183;51.350;11.102;2022-12-29T19:50:43;22.50;;;12.98;;
27804;SDS011;15183;51.350;11.102;2022-12-29T19:53:10;10.85;;;6.18;;
27804;SDS011;15183;51.350;11.102;2022-12-29T19:55:40;6.40;;;3.40;;
27804;SDS011;15183;51.350;11.102;2022-12-29T19:58:08;6.95;;;2.75;;
27804;SDS011;15183;51.350;11.102;2022-12-29T20:00:36;5.10;;;2.15;;
27804;SDS011;15183;51.350;11.102;2022-12-29T20:03:05;4.63;;;2.47;;
27804;SDS011;15183;51.350;11.102;2022-12-29T20:05:31;5.97;;;2.80;;
27804;SDS011;15183;51.350;11.102;2022-12-29T20:07:57;6.93;;;2.33;;
27804;SDS011;15183;51.350;11.102;2022-12-29T20:10:24;5.78;;;2.10;;
27804;SDS011;15183;51.350;11.102;2022-12-29T20:12:50;9.90;;;3.78;;
27804;SDS011;15183;51.350;11.102;2022-12-29T20:15:16;5.72;;;4.10;;
27804;SDS011;15183;51.350;11.102;2022-12-29T20:17:44;7.07;;;3.40;;
27804;SDS011;15183;51.350;11.102;2022-12-29T20:20:10;7.45;;;3.40;;
27804;SDS011;15183;51.350;11.102;2022-12-29T20:22:38;10.27;;;3.25;;
27804;SDS011;15183;51.350;11.102;2022-12-29T20:25:05;5.88;;;3.17;;
27804;SDS011;15183;51.350;11.102;2022-12-29T20:27:31;5.90;;;2.70;;
27804;SDS011;15183;51.350;11.102;2022-12-29T20:29:58;6.38;;;2.00;;
27804;SDS011;15183;51.350;11.102;2022-12-29T20:32:24;4.53;;;2.22;;
27804;SDS011;15183;51.350;11.102;2022-12-29T20:34:51;6.80;;;2.63;;
27804;SDS011;15183;51.350;11.102;2022-12-29T20:37:19;3.95;;;1.75;;
27804;SDS011;15183;51.350;11.102;2022-12-29T20:39:46;5.28;;;2.25;;
27804;SDS011;15183;51.350;11.102;2022-12-29T20:42:13;3.25;;;1.63;;
27804;SDS011;15183;51.350;11.102;2022-12-29T20:44:39;5.25;;;2.22;;
27804;SDS011;15183;51.350;11.102;2022-12-29T20:47:06;5.13;;;3.00;;
27804;SDS011;15183;51.350;11.102;2022-12-29T20:49:32;5.15;;;3.03;;
27804;SDS011;15183;51.350;11.102;2022-12-29T20:52:02;8.18;;;2.40;;
27804;SDS011;15183;51.350;11.102;2022-12-29T20:54:29;8.82;;;2.55;;
27804;SDS011;15183;51.350;11.102;2022-12-29T20:56:55;7.75;;;2.13;;
27804;SDS011;15183;51.350;11.102;2022-12-29T20:59:22;5.63;;;2.97;;
27804;SDS011;15183;51.350;11.102;2022-12-29T21:01:49;7.63;;;3.40;;
27804;SDS011;15183;51.350;11.102;2022-12-29T21:04:15;4.65;;;2.40;;
27804;SDS011;15183;51.350;11.102;2022-12-29T21:06:41;7.72;;;3.25;;
27804;SDS011;15183;51.350;11.102;2022-12-29T21:09:08;6.70;;;3.30;;
27804;SDS011;15183;51.350;11.102;2022-12-29T21:11:34;4.57;;;2.70;;
27804;SDS011;15183;51.350;11.102;2022-12-29T21:14:01;7.07;;;3.10;;
27804;SDS011;15183;51.350;11.102;2022-12-29T21:16:27;7.43;;;2.35;;
27804;SDS011;15183;51.350;11.102;2022-12-29T21:18:54;6.65;;;2.08;;
27804;SDS011;15183;51.350;11.102;2022-12-29T21:21:22;7.10;;;2.53;;
27804;SDS011;15183;51.350;11.102;2022-12-29T21:23:50;6.95;;;2.67;;
27804;SDS011;15183;51.350;11.102;2022-12-29T21:26:18;6.38;;;2.10;;
27804;SDS011;15183;51.350;11.102;2022-12-29T21:28:48;5.72;;;1.85;;
27804;SDS011;15183;51.350;11.102;2022-12-29T21:33:49;4.43;;;2.15;;
27804;SDS011;15183;51.350;11.102;2022-12-29T21:36:16;8.63;;;2.13;;
27804;SDS011;15183;51.350;11.102;2022-12-29T21:38:42;5.78;;;2.40;;
27804;SDS011;15183;51.350;11.102;2022-12-29T21:41:10;7.40;;;2.97;;
27804;SDS011;15183;51.350;11.102;2022-12-29T21:43:39;7.45;;;2.97;;
27804;SDS011;15183;51.350;11.102;2022-12-29T21:46:06;4.50;;;2.10;;
27804;SDS011;15183;51.350;11.102;2022-12-29T21:48:33;7.07;;;2.70;;
27804;SDS011;15183;51.350;11.102;2022-12-29T21:51:12;7.70;;;2.08;;
27804;SDS011;15183;51.350;11.102;2022-12-29T21:53:58;5.90;;;2.55;;
27804;SDS011;15183;51.350;11.102;2022-12-29T21:56:46;6.13;;;2.30;;
27804;SDS011;15183;51.350;11.102;2022-12-29T21:59:13;6.57;;;2.00;;
27804;SDS011;15183;51.350;11.102;2022-12-29T22:02:00;8.40;;;2.42;;
27804;SDS011;15183;51.350;11.102;2022-12-29T22:04:47;5.22;;;2.42;;
27804;SDS011;15183;51.350;11.102;2022-12-29T22:07:32;5.68;;;2.42;;
27804;SDS011;15183;51.350;11.102;2022-12-29T22:10:17;6.82;;;2.90;;
27804;SDS011;15183;51.350;11.102;2022-12-29T22:13:02;8.55;;;2.17;;
27804;SDS011;15183;51.350;11.102;2022-12-29T22:15:32;7.00;;;3.00;;
27804;SDS011;15183;51.350;11.102;2022-12-29T22:18:02;5.50;;;1.92;;
27804;SDS011;15183;51.350;11.102;2022-12-29T22:20:30;6.25;;;2.72;;
27804;SDS011;15183;51.350;11.102;2022-12-29T22:22:59;6.07;;;2.38;;
27804;SDS011;15183;51.350;11.102;2022-12-29T22:25:26;4.85;;;2.05;;
27804;SDS011;15183;51.350;11.102;2022-12-29T22:27:55;5.30;;;2.13;;
27804;SDS011;15183;51.350;11.102;2022-12-29T22:30:21;7.72;;;1.80;;
27804;SDS011;15183;51.350;11.102;2022-12-29T22:32:48;5.20;;;1.70;;
27804;SDS011;15183;51.350;11.102;2022-12-29T22:35:14;7.45;;;1.85;;
27804;SDS011;15183;51.350;11.102;2022-12-29T22:37:41;8.57;;;2.17;;
27804;SDS011;15183;51.350;11.102;2022-12-29T22:40:10;9.75;;;4.00;;
27804;SDS011;15183;51.350;11.102;2022-12-29T22:42:37;3.90;;;1.88;;
27804;SDS011;15183;51.350;11.102;2022-12-29T22:45:04;5.40;;;2.60;;
27804;SDS011;15183;51.350;11.102;2022-12-29T22:47:32;4.47;;;2.30;;
27804;SDS011;15183;51.350;11.102;2022-12-29T22:49:59;7.32;;;3.05;;
27804;SDS011;15183;51.350;11.102;2022-12-29T22:52:25;5.32;;;2.63;;
27804;SDS011;15183;51.350;11.102;2022-12-29T22:54:52;8.80;;;2.30;;
27804;SDS011;15183;51.350;11.102;2022-12-29T22:57:18;7.97;;;2.50;;
27804;SDS011;15183;51.350;11.102;2022-12-29T22:59:44;9.80;;;2.35;;
27804;SDS011;15183;51.350;11.102;2022-12-29T23:02:11;7.30;;;2.60;;
27804;SDS011;15183;51.350;11.102;2022-12-29T23:04:37;6.30;;;2.50;;
27804;SDS011;15183;51.350;11.102;2022-12-29T23:07:04;8.52;;;2.08;;
27804;SDS011;15183;51.350;11.102;2022-12-29T23:09:30;8.30;;;2.60;;
27804;SDS011;15183;51.350;11.102;2022-12-29T23:11:57;9.95;;;2.33;;
27804;SDS011;15183;51.350;11.102;2022-12-29T23:14:23;7.43;;;2.47;;
27804;SDS011;15183;51.350;11.102;2022-12-29T23:16:50;7.38;;;2.30;;
27804;SDS011;15183;51.350;11.102;2022-12-29T23:19:16;7.65;;;2.60;;
27804;SDS011;15183;51.350;11.102;2022-12-29T23:21:42;7.07;;;2.67;;
27804;SDS011;15183;51.350;11.102;2022-12-29T23:24:10;6.45;;;2.45;;
27804;SDS011;15183;51.350;11.102;2022-12-29T23:26:42;5.15;;;2.63;;
27804;SDS011;15183;51.350;11.102;2022-12-29T23:29:12;4.53;;;2.28;;
27804;SDS011;15183;51.350;11.102;2022-12-29T23:31:42;5.70;;;2.38;;
27804;SDS011;15183;51.350;11.102;2022-12-29T23:34:09;7.80;;;2.20;;
27804;SDS011;15183;51.350;11.102;2022-12-29T23:36:37;8.00;;;2.55;;
27804;SDS011;15183;51.350;11.102;2022-12-29T23:39:04;10.80;;;3.40;;
27804;SDS011;15183;51.350;11.102;2022-12-29T23:41:33;11.68;;;3.10;;
27804;SDS011;15183;51.350;11.102;2022-12-29T23:44:00;8.55;;;3.20;;
27804;SDS011;15183;51.350;11.102;2022-12-29T23:46:27;7.30;;;2.10;;
27804;SDS011;15183;51.350;11.102;2022-12-29T23:48:54;10.50;;;3.78;;
27804;SDS011;15183;51.350;11.102;2022-12-29T23:51:21;8.15;;;3.40;;
27804;SDS011;15183;51.350;11.102;2022-12-29T23:53:47;8.23;;;2.45;;
27804;SDS011;15183;51.350;11.102;2022-12-29T23:56:16;5.70;;;2.72;;
27804;SDS011;15183;51.350;11.102;2022-12-29T23:58:45;18.38;;;2.85;;
